sensor_id;sensor_type;location;lat;lon;timestamp;P1;durP1;ratioP1;P2;durP2;ratioP2
42602;SDS011;28233;55.748;48.752;2023-09-08T00:01:44;4.20;;;1.42;;
42602;SDS011;28233;55.748;48.752;2023-09-08T00:03:47;3.28;;;1.15;;
42602;SDS011;28233;55.748;48.752;2023-09-08T00:05:50;6.68;;;1.60;;
42602;SDS011;28233;55.748;48.752;2023-09-08T00:07:52;2.45;;;1.08;;
42602;SDS011;28233;55.748;48.752;2023-09-08T00:09:55;4.13;;;1.35;;
42602;SDS011;28233;55.748;48.752;2023-09-08T00:11:58;3.88;;;1.40;;
42602;SDS011;28233;55.748;48.752;2023-09-08T00:14:01;2.17;;;1.25;;
42602;SDS011;28233;55.748;48.752;2023-09-08T00:16:05;2.20;;;1.00;;
42602;SDS011;28233;55.748;48.752;2023-09-08T00:18:10;2.22;;;1.00;;
42602;SDS011;28233;55.748;48.752;2023-09-08T00:20:14;3.10;;;1.00;;
42602;SDS011;28233;55.748;48.752;2023-09-08T00:22:17;6.35;;;1.00;;
42602;SDS011;28233;55.748;48.752;2023-09-08T00:24:20;5.63;;;0.90;;
42602;SDS011;28233;55.748;48.752;2023-09-08T00:26:22;4.93;;;2.17;;
42602;SDS011;28233;55.748;48.752;2023-09-08T00:28:25;4.15;;;1.88;;
42602;SDS011;28233;55.748;48.752;2023-09-08T00:30:28;3.05;;;0.90;;
42602;SDS011;28233;55.748;48.752;2023-09-08T00:32:30;1.77;;;0.82;;
42602;SDS011;28233;55.748;48.752;2023-09-08T00:34:33;4.10;;;1.13;;
42602;SDS011;28233;55.748;48.752;2023-09-08T00:36:36;1.83;;;0.88;;
42602;SDS011;28233;55.748;48.752;2023-09-08T00:38:39;5.60;;;1.00;;
42602;SDS011;28233;55.748;48.752;2023-09-08T00:40:41;2.25;;;1.00;;
42602;SDS011;28233;55.748;48.752;2023-09-08T00:42:44;3.28;;;1.00;;
42602;SDS011;28233;55.748;48.752;2023-09-08T00:44:47;2.53;;;1.20;;
42602;SDS011;28233;55.748;48.752;2023-09-08T00:46:50;6.00;;;1.52;;
42602;SDS011;28233;55.748;48.752;2023-09-08T00:48:53;8.57;;;1.13;;
42602;SDS011;28233;55.748;48.752;2023-09-08T00:50:57;3.08;;;1.33;;
42602;SDS011;28233;55.748;48.752;2023-09-08T00:53:00;2.22;;;1.00;;
42602;SDS011;28233;55.748;48.752;2023-09-08T00:55:03;2.10;;;1.08;;
42602;SDS011;28233;55.748;48.752;2023-09-08T00:57:06;2.15;;;0.82;;
42602;SDS011;28233;55.748;48.752;2023-09-08T00:59:11;2.13;;;1.05;;
42602;SDS011;28233;55.748;48.752;2023-09-08T01:01:14;3.40;;;1.10;;
42602;SDS011;28233;55.748;48.752;2023-09-08T01:03:16;3.10;;;1.15;;
42602;SDS011;28233;55.748;48.752;2023-09-08T01:05:19;3.95;;;1.13;;
42602;SDS011;28233;55.748;48.752;2023-09-08T01:07:23;1.30;;;0.90;;
42602;SDS011;28233;55.748;48.752;2023-09-08T01:09:26;3.63;;;1.00;;
42602;SDS011;28233;55.748;48.752;2023-09-08T01:11:29;2.33;;;0.98;;
42602;SDS011;28233;55.748;48.752;2023-09-08T01:13:33;2.60;;;1.35;;
42602;SDS011;28233;55.748;48.752;2023-09-08T01:15:36;2.47;;;1.27;;
42602;SDS011;28233;55.748;48.752;2023-09-08T01:17:39;1.67;;;0.98;;
42602;SDS011;28233;55.748;48.752;2023-09-08T01:19:41;2.42;;;1.08;;
42602;SDS011;28233;55.748;48.752;2023-09-08T01:26:24;5.05;;;1.10;;
42602;SDS011;28233;55.748;48.752;2023-09-08T01:28:33;1.88;;;0.90;;
42602;SDS011;28233;55.748;48.752;2023-09-08T01:30:36;4.85;;;1.38;;
42602;SDS011;28233;55.748;48.752;2023-09-08T01:32:39;4.22;;;1.30;;
42602;SDS011;28233;55.748;48.752;2023-09-08T01:34:43;1.90;;;1.30;;
42602;SDS011;28233;55.748;48.752;2023-09-08T01:36:46;1.88;;;0.90;;
42602;SDS011;28233;55.748;48.752;2023-09-08T01:38:49;2.05;;;1.15;;
42602;SDS011;28233;55.748;48.752;2023-09-08T01:40:52;3.65;;;1.45;;
42602;SDS011;28233;55.748;48.752;2023-09-08T01:42:54;2.78;;;1.08;;
42602;SDS011;28233;55.748;48.752;2023-09-08T01:44:57;6.93;;;1.30;;
42602;SDS011;28233;55.748;48.752;2023-09-08T01:47:00;2.40;;;1.15;;
42602;SDS011;28233;55.748;48.752;2023-09-08T01:49:03;1.52;;;0.80;;
42602;SDS011;28233;55.748;48.752;2023-09-08T01:51:06;4.25;;;1.30;;
42602;SDS011;28233;55.748;48.752;2023-09-08T01:53:08;4.28;;;1.33;;
42602;SDS011;28233;55.748;48.752;2023-09-08T01:55:11;2.00;;;0.90;;
42602;SDS011;28233;55.748;48.752;2023-09-08T01:57:14;2.28;;;1.13;;
42602;SDS011;28233;55.748;48.752;2023-09-08T01:59:17;2.78;;;1.38;;
42602;SDS011;28233;55.748;48.752;2023-09-08T02:01:19;4.25;;;1.30;;
42602;SDS011;28233;55.748;48.752;2023-09-08T02:03:22;2.90;;;1.42;;
42602;SDS011;28233;55.748;48.752;2023-09-08T02:05:25;1.40;;;1.17;;
42602;SDS011;28233;55.748;48.752;2023-09-08T02:07:29;5.45;;;1.55;;
42602;SDS011;28233;55.748;48.752;2023-09-08T02:09:32;1.75;;;1.20;;
42602;SDS011;28233;55.748;48.752;2023-09-08T02:11:36;3.03;;;1.08;;
42602;SDS011;28233;55.748;48.752;2023-09-08T02:13:40;5.18;;;1.33;;
42602;SDS011;28233;55.748;48.752;2023-09-08T02:15:44;2.28;;;1.33;;
42602;SDS011;28233;55.748;48.752;2023-09-08T02:17:49;3.45;;;1.45;;
42602;SDS011;28233;55.748;48.752;2023-09-08T02:20:18;3.28;;;1.25;;
42602;SDS011;28233;55.748;48.752;2023-09-08T02:22:21;2.95;;;0.93;;
42602;SDS011;28233;55.748;48.752;2023-09-08T02:24:24;3.70;;;1.20;;
42602;SDS011;28233;55.748;48.752;2023-09-08T02:26:26;3.35;;;1.33;;
42602;SDS011;28233;55.748;48.752;2023-09-08T02:28:29;2.22;;;1.67;;
42602;SDS011;28233;55.748;48.752;2023-09-08T02:30:33;3.67;;;1.42;;
42602;SDS011;28233;55.748;48.752;2023-09-08T02:32:35;1.58;;;1.00;;
42602;SDS011;28233;55.748;48.752;2023-09-08T02:34:38;8.18;;;1.70;;
42602;SDS011;28233;55.748;48.752;2023-09-08T02:36:41;2.35;;;0.88;;
42602;SDS011;28233;55.748;48.752;2023-09-08T02:38:44;2.58;;;1.23;;
42602;SDS011;28233;55.748;48.752;2023-09-08T02:40:47;2.80;;;0.93;;
42602;SDS011;28233;55.748;48.752;2023-09-08T02:42:51;3.97;;;0.93;;
42602;SDS011;28233;55.748;48.752;2023-09-08T02:44:53;5.55;;;1.55;;
42602;SDS011;28233;55.748;48.752;2023-09-08T02:46:56;2.58;;;1.20;;
42602;SDS011;28233;55.748;48.752;2023-09-08T02:48:59;1.92;;;1.15;;
42602;SDS011;28233;55.748;48.752;2023-09-08T02:51:01;3.92;;;1.83;;
42602;SDS011;28233;55.748;48.752;2023-09-08T02:53:04;1.85;;;1.00;;
42602;SDS011;28233;55.748;48.752;2023-09-08T02:55:07;1.85;;;1.15;;
42602;SDS011;28233;55.748;48.752;2023-09-08T02:57:10;4.57;;;1.20;;
42602;SDS011;28233;55.748;48.752;2023-09-08T02:59:13;4.70;;;1.10;;
42602;SDS011;28233;55.748;48.752;2023-09-08T03:01:16;2.08;;;1.15;;
42602;SDS011;28233;55.748;48.752;2023-09-08T03:03:22;2.22;;;0.85;;
42602;SDS011;28233;55.748;48.752;2023-09-08T03:05:25;2.80;;;1.10;;
42602;SDS011;28233;55.748;48.752;2023-09-08T03:07:28;6.70;;;1.63;;
42602;SDS011;28233;55.748;48.752;2023-09-08T03:09:31;1.65;;;1.10;;
42602;SDS011;28233;55.748;48.752;2023-09-08T03:11:36;2.22;;;1.13;;
42602;SDS011;28233;55.748;48.752;2023-09-08T03:13:39;3.67;;;0.85;;
42602;SDS011;28233;55.748;48.752;2023-09-08T03:15:42;2.80;;;1.17;;
42602;SDS011;28233;55.748;48.752;2023-09-08T03:17:45;3.42;;;0.98;;
42602;SDS011;28233;55.748;48.752;2023-09-08T03:19:47;3.60;;;1.67;;
42602;SDS011;28233;55.748;48.752;2023-09-08T03:21:50;1.80;;;0.98;;
42602;SDS011;28233;55.748;48.752;2023-09-08T03:23:53;2.00;;;1.15;;
42602;SDS011;28233;55.748;48.752;2023-09-08T03:25:56;5.00;;;1.23;;
42602;SDS011;28233;55.748;48.752;2023-09-08T03:27:58;4.45;;;1.00;;
42602;SDS011;28233;55.748;48.752;2023-09-08T03:30:01;3.17;;;1.30;;
42602;SDS011;28233;55.748;48.752;2023-09-08T03:32:06;2.92;;;1.00;;
42602;SDS011;28233;55.748;48.752;2023-09-08T03:34:10;2.33;;;1.15;;
42602;SDS011;28233;55.748;48.752;2023-09-08T03:36:13;6.78;;;1.30;;
42602;SDS011;28233;55.748;48.752;2023-09-08T03:38:15;2.90;;;0.95;;
42602;SDS011;28233;55.748;48.752;2023-09-08T03:40:18;2.45;;;1.30;;
42602;SDS011;28233;55.748;48.752;2023-09-08T03:42:21;4.85;;;1.45;;
42602;SDS011;28233;55.748;48.752;2023-09-08T03:44:24;2.80;;;1.42;;
42602;SDS011;28233;55.748;48.752;2023-09-08T03:46:26;4.55;;;1.15;;
42602;SDS011;28233;55.748;48.752;2023-09-08T03:48:29;2.42;;;1.67;;
42602;SDS011;28233;55.748;48.752;2023-09-08T03:50:32;3.50;;;1.23;;
42602;SDS011;28233;55.748;48.752;2023-09-08T03:52:35;3.70;;;1.85;;
42602;SDS011;28233;55.748;48.752;2023-09-08T03:54:38;5.20;;;2.38;;
42602;SDS011;28233;55.748;48.752;2023-09-08T03:56:40;3.65;;;1.67;;
42602;SDS011;28233;55.748;48.752;2023-09-08T03:58:43;4.03;;;1.25;;
42602;SDS011;28233;55.748;48.752;2023-09-08T04:00:47;3.35;;;1.85;;
42602;SDS011;28233;55.748;48.752;2023-09-08T04:02:49;3.15;;;1.65;;
42602;SDS011;28233;55.748;48.752;2023-09-08T04:04:52;5.70;;;1.42;;
42602;SDS011;28233;55.748;48.752;2023-09-08T04:06:55;5.60;;;1.90;;
42602;SDS011;28233;55.748;48.752;2023-09-08T04:08:57;13.50;;;2.72;;
42602;SDS011;28233;55.748;48.752;2023-09-08T04:11:00;5.13;;;1.88;;
42602;SDS011;28233;55.748;48.752;2023-09-08T04:13:03;4.13;;;2.08;;
42602;SDS011;28233;55.748;48.752;2023-09-08T04:15:06;5.32;;;2.58;;
42602;SDS011;28233;55.748;48.752;2023-09-08T04:17:10;4.72;;;2.80;;
42602;SDS011;28233;55.748;48.752;2023-09-08T04:19:13;4.30;;;1.77;;
42602;SDS011;28233;55.748;48.752;2023-09-08T04:21:15;3.45;;;2.15;;
42602;SDS011;28233;55.748;48.752;2023-09-08T04:23:18;9.30;;;2.17;;
42602;SDS011;28233;55.748;48.752;2023-09-08T04:25:21;7.55;;;2.30;;
42602;SDS011;28233;55.748;48.752;2023-09-08T04:27:24;5.20;;;1.95;;
42602;SDS011;28233;55.748;48.752;2023-09-08T04:29:27;13.20;;;2.75;;
42602;SDS011;28233;55.748;48.752;2023-09-08T04:31:30;4.10;;;2.25;;
42602;SDS011;28233;55.748;48.752;2023-09-08T04:33:33;4.05;;;2.03;;
42602;SDS011;28233;55.748;48.752;2023-09-08T04:35:36;5.68;;;2.03;;
42602;SDS011;28233;55.748;48.752;2023-09-08T04:37:39;4.78;;;2.13;;
42602;SDS011;28233;55.748;48.752;2023-09-08T04:39:42;3.58;;;1.75;;
42602;SDS011;28233;55.748;48.752;2023-09-08T04:41:46;4.38;;;1.90;;
42602;SDS011;28233;55.748;48.752;2023-09-08T04:43:48;3.92;;;2.03;;
42602;SDS011;28233;55.748;48.752;2023-09-08T04:45:51;10.98;;;1.67;;
42602;SDS011;28233;55.748;48.752;2023-09-08T04:47:54;7.80;;;2.78;;
42602;SDS011;28233;55.748;48.752;2023-09-08T04:49:57;5.82;;;2.00;;
42602;SDS011;28233;55.748;48.752;2023-09-08T04:51:59;3.70;;;2.13;;
42602;SDS011;28233;55.748;48.752;2023-09-08T04:54:03;5.70;;;2.20;;
42602;SDS011;28233;55.748;48.752;2023-09-08T04:56:05;4.25;;;2.00;;
42602;SDS011;28233;55.748;48.752;2023-09-08T04:58:08;3.10;;;2.13;;
42602;SDS011;28233;55.748;48.752;2023-09-08T05:00:11;5.57;;;2.55;;
42602;SDS011;28233;55.748;48.752;2023-09-08T05:02:14;5.45;;;2.53;;
42602;SDS011;28233;55.748;48.752;2023-09-08T05:04:17;3.60;;;1.80;;
42602;SDS011;28233;55.748;48.752;2023-09-08T05:06:20;4.93;;;1.90;;
42602;SDS011;28233;55.748;48.752;2023-09-08T05:08:23;4.70;;;2.20;;
42602;SDS011;28233;55.748;48.752;2023-09-08T05:10:26;5.03;;;2.00;;
42602;SDS011;28233;55.748;48.752;2023-09-08T05:12:28;7.18;;;3.15;;
42602;SDS011;28233;55.748;48.752;2023-09-08T05:14:31;4.10;;;1.75;;
42602;SDS011;28233;55.748;48.752;2023-09-08T05:16:34;4.95;;;2.20;;
42602;SDS011;28233;55.748;48.752;2023-09-08T05:18:48;6.93;;;1.63;;
42602;SDS011;28233;55.748;48.752;2023-09-08T05:20:51;6.40;;;2.35;;
42602;SDS011;28233;55.748;48.752;2023-09-08T05:22:54;4.07;;;1.67;;
42602;SDS011;28233;55.748;48.752;2023-09-08T05:24:56;2.88;;;1.45;;
42602;SDS011;28233;55.748;48.752;2023-09-08T05:26:59;4.28;;;1.75;;
42602;SDS011;28233;55.748;48.752;2023-09-08T05:29:02;4.93;;;2.05;;
42602;SDS011;28233;55.748;48.752;2023-09-08T05:31:05;4.28;;;1.85;;
42602;SDS011;28233;55.748;48.752;2023-09-08T05:33:08;4.90;;;1.77;;
42602;SDS011;28233;55.748;48.752;2023-09-08T05:35:11;5.53;;;2.00;;
42602;SDS011;28233;55.748;48.752;2023-09-08T05:37:13;3.20;;;1.65;;
42602;SDS011;28233;55.748;48.752;2023-09-08T05:39:16;3.90;;;1.50;;
42602;SDS011;28233;55.748;48.752;2023-09-08T05:41:21;2.75;;;1.38;;
42602;SDS011;28233;55.748;48.752;2023-09-08T05:43:24;2.63;;;1.20;;
42602;SDS011;28233;55.748;48.752;2023-09-08T05:45:27;3.05;;;1.85;;
42602;SDS011;28233;55.748;48.752;2023-09-08T05:47:30;8.43;;;2.03;;
42602;SDS011;28233;55.748;48.752;2023-09-08T05:49:33;4.35;;;1.50;;
42602;SDS011;28233;55.748;48.752;2023-09-08T05:51:38;7.43;;;1.20;;
42602;SDS011;28233;55.748;48.752;2023-09-08T05:53:42;5.43;;;1.05;;
42602;SDS011;28233;55.748;48.752;2023-09-08T05:55:45;5.93;;;1.65;;
42602;SDS011;28233;55.748;48.752;2023-09-08T05:57:48;1.83;;;1.48;;
42602;SDS011;28233;55.748;48.752;2023-09-08T05:59:50;2.88;;;1.35;;
42602;SDS011;28233;55.748;48.752;2023-09-08T06:01:53;1.70;;;1.20;;
42602;SDS011;28233;55.748;48.752;2023-09-08T06:03:56;4.82;;;2.03;;
42602;SDS011;28233;55.748;48.752;2023-09-08T06:05:59;3.53;;;1.10;;
42602;SDS011;28233;55.748;48.752;2023-09-08T06:08:02;3.38;;;1.88;;
42602;SDS011;28233;55.748;48.752;2023-09-08T06:10:09;4.95;;;1.45;;
42602;SDS011;28233;55.748;48.752;2023-09-08T06:12:12;2.90;;;0.85;;
42602;SDS011;28233;55.748;48.752;2023-09-08T06:14:15;4.00;;;1.05;;
42602;SDS011;28233;55.748;48.752;2023-09-08T06:16:18;3.45;;;0.90;;
42602;SDS011;28233;55.748;48.752;2023-09-08T06:18:21;2.95;;;0.90;;
42602;SDS011;28233;55.748;48.752;2023-09-08T06:20:24;2.17;;;1.08;;
42602;SDS011;28233;55.748;48.752;2023-09-08T06:22:27;1.83;;;0.75;;
42602;SDS011;28233;55.748;48.752;2023-09-08T06:24:30;4.50;;;1.35;;
42602;SDS011;28233;55.748;48.752;2023-09-08T06:26:32;3.85;;;0.85;;
42602;SDS011;28233;55.748;48.752;2023-09-08T06:28:35;0.57;;;0.52;;
42602;SDS011;28233;55.748;48.752;2023-09-08T06:30:39;1.90;;;0.80;;
42602;SDS011;28233;55.748;48.752;2023-09-08T06:32:44;1.98;;;0.93;;
42602;SDS011;28233;55.748;48.752;2023-09-08T06:34:47;1.45;;;0.82;;
42602;SDS011;28233;55.748;48.752;2023-09-08T06:36:50;3.78;;;1.45;;
42602;SDS011;28233;55.748;48.752;2023-09-08T06:38:52;1.52;;;1.25;;
42602;SDS011;28233;55.748;48.752;2023-09-08T06:40:55;4.05;;;1.00;;
42602;SDS011;28233;55.748;48.752;2023-09-08T06:42:58;4.40;;;1.00;;
42602;SDS011;28233;55.748;48.752;2023-09-08T06:45:04;3.40;;;1.42;;
42602;SDS011;28233;55.748;48.752;2023-09-08T06:47:08;3.42;;;1.20;;
42602;SDS011;28233;55.748;48.752;2023-09-08T06:49:11;6.53;;;1.38;;
42602;SDS011;28233;55.748;48.752;2023-09-08T06:51:14;4.72;;;1.15;;
42602;SDS011;28233;55.748;48.752;2023-09-08T06:53:17;3.17;;;0.82;;
42602;SDS011;28233;55.748;48.752;2023-09-08T06:55:20;1.58;;;1.25;;
42602;SDS011;28233;55.748;48.752;2023-09-08T06:57:23;1.52;;;0.80;;
42602;SDS011;28233;55.748;48.752;2023-09-08T06:59:26;2.97;;;0.85;;
42602;SDS011;28233;55.748;48.752;2023-09-08T07:01:29;2.08;;;0.95;;
42602;SDS011;28233;55.748;48.752;2023-09-08T07:03:31;4.40;;;0.77;;
42602;SDS011;28233;55.748;48.752;2023-09-08T07:05:40;10.82;;;1.35;;
42602;SDS011;28233;55.748;48.752;2023-09-08T07:07:43;2.47;;;0.60;;
42602;SDS011;28233;55.748;48.752;2023-09-08T07:09:46;3.05;;;1.00;;
42602;SDS011;28233;55.748;48.752;2023-09-08T07:11:49;2.55;;;1.10;;
42602;SDS011;28233;55.748;48.752;2023-09-08T07:13:52;1.30;;;0.73;;
42602;SDS011;28233;55.748;48.752;2023-09-08T07:15:55;2.03;;;1.15;;
42602;SDS011;28233;55.748;48.752;2023-09-08T07:17:58;2.75;;;0.90;;
42602;SDS011;28233;55.748;48.752;2023-09-08T07:20:01;1.85;;;0.80;;
42602;SDS011;28233;55.748;48.752;2023-09-08T07:22:05;5.22;;;0.73;;
42602;SDS011;28233;55.748;48.752;2023-09-08T07:24:08;2.72;;;0.75;;
42602;SDS011;28233;55.748;48.752;2023-09-08T07:26:11;1.73;;;0.52;;
42602;SDS011;28233;55.748;48.752;2023-09-08T07:28:14;3.78;;;0.80;;
42602;SDS011;28233;55.748;48.752;2023-09-08T07:30:18;1.27;;;0.77;;
42602;SDS011;28233;55.748;48.752;2023-09-08T07:32:22;0.93;;;0.50;;
42602;SDS011;28233;55.748;48.752;2023-09-08T07:34:27;1.38;;;0.60;;
42602;SDS011;28233;55.748;48.752;2023-09-08T07:36:31;1.92;;;0.60;;
42602;SDS011;28233;55.748;48.752;2023-09-08T07:38:34;2.65;;;0.80;;
42602;SDS011;28233;55.748;48.752;2023-09-08T07:40:37;1.60;;;0.60;;
42602;SDS011;28233;55.748;48.752;2023-09-08T07:42:40;2.33;;;0.73;;
42602;SDS011;28233;55.748;48.752;2023-09-08T07:44:44;2.67;;;0.68;;
42602;SDS011;28233;55.748;48.752;2023-09-08T07:46:47;3.17;;;0.75;;
42602;SDS011;28233;55.748;48.752;2023-09-08T07:48:52;1.10;;;0.93;;
42602;SDS011;28233;55.748;48.752;2023-09-08T07:50:55;3.22;;;0.70;;
42602;SDS011;28233;55.748;48.752;2023-09-08T07:52:58;3.38;;;0.77;;
42602;SDS011;28233;55.748;48.752;2023-09-08T07:55:01;4.60;;;1.02;;
42602;SDS011;28233;55.748;48.752;2023-09-08T07:57:06;1.25;;;0.73;;
42602;SDS011;28233;55.748;48.752;2023-09-08T07:59:09;1.08;;;0.45;;
42602;SDS011;28233;55.748;48.752;2023-09-08T08:01:12;2.17;;;0.80;;
42602;SDS011;28233;55.748;48.752;2023-09-08T08:03:16;2.40;;;1.02;;
42602;SDS011;28233;55.748;48.752;2023-09-08T08:05:19;1.70;;;0.73;;
42602;SDS011;28233;55.748;48.752;2023-09-08T08:07:22;3.38;;;1.27;;
42602;SDS011;28233;55.748;48.752;2023-09-08T08:09:25;2.22;;;0.98;;
42602;SDS011;28233;55.748;48.752;2023-09-08T08:11:28;1.10;;;0.45;;
42602;SDS011;28233;55.748;48.752;2023-09-08T08:13:31;0.80;;;0.30;;
42602;SDS011;28233;55.748;48.752;2023-09-08T08:15:40;2.05;;;0.45;;
42602;SDS011;28233;55.748;48.752;2023-09-08T08:17:44;4.38;;;0.40;;
42602;SDS011;28233;55.748;48.752;2023-09-08T08:19:47;0.70;;;0.40;;
42602;SDS011;28233;55.748;48.752;2023-09-08T08:21:50;3.53;;;0.45;;
42602;SDS011;28233;55.748;48.752;2023-09-08T08:23:53;5.78;;;0.63;;
42602;SDS011;28233;55.748;48.752;2023-09-08T08:25:56;1.10;;;0.40;;
42602;SDS011;28233;55.748;48.752;2023-09-08T08:28:00;0.90;;;0.60;;
42602;SDS011;28233;55.748;48.752;2023-09-08T08:30:04;2.40;;;1.15;;
42602;SDS011;28233;55.748;48.752;2023-09-08T08:32:17;1.50;;;0.40;;
42602;SDS011;28233;55.748;48.752;2023-09-08T08:34:20;1.15;;;0.60;;
42602;SDS011;28233;55.748;48.752;2023-09-08T08:36:23;2.75;;;0.50;;
42602;SDS011;28233;55.748;48.752;2023-09-08T08:38:26;2.60;;;1.17;;
42602;SDS011;28233;55.748;48.752;2023-09-08T08:40:29;2.55;;;0.50;;
42602;SDS011;28233;55.748;48.752;2023-09-08T08:42:33;2.13;;;0.55;;
42602;SDS011;28233;55.748;48.752;2023-09-08T08:44:39;1.40;;;0.65;;
42602;SDS011;28233;55.748;48.752;2023-09-08T08:46:43;5.15;;;0.82;;
42602;SDS011;28233;55.748;48.752;2023-09-08T08:48:49;1.27;;;0.90;;
42602;SDS011;28233;55.748;48.752;2023-09-08T08:50:57;1.30;;;0.90;;
42602;SDS011;28233;55.748;48.752;2023-09-08T08:53:01;2.63;;;1.38;;
42602;SDS011;28233;55.748;48.752;2023-09-08T08:55:07;1.42;;;0.90;;
42602;SDS011;28233;55.748;48.752;2023-09-08T08:57:11;2.10;;;0.88;;
42602;SDS011;28233;55.748;48.752;2023-09-08T08:59:15;2.60;;;1.13;;
42602;SDS011;28233;55.748;48.752;2023-09-08T09:01:18;6.13;;;1.60;;
42602;SDS011;28233;55.748;48.752;2023-09-08T09:03:26;4.38;;;1.23;;
42602;SDS011;28233;55.748;48.752;2023-09-08T09:05:30;5.00;;;1.13;;
42602;SDS011;28233;55.748;48.752;2023-09-08T09:07:38;3.88;;;1.10;;
42602;SDS011;28233;55.748;48.752;2023-09-08T09:09:45;3.08;;;1.55;;
42602;SDS011;28233;55.748;48.752;2023-09-08T09:11:49;5.40;;;1.38;;
42602;SDS011;28233;55.748;48.752;2023-09-08T09:13:53;2.55;;;1.45;;
42602;SDS011;28233;55.748;48.752;2023-09-08T09:15:59;4.07;;;2.17;;
42602;SDS011;28233;55.748;48.752;2023-09-08T09:18:04;2.05;;;1.20;;
42602;SDS011;28233;55.748;48.752;2023-09-08T09:20:11;2.50;;;1.67;;
42602;SDS011;28233;55.748;48.752;2023-09-08T09:22:19;3.13;;;1.30;;
42602;SDS011;28233;55.748;48.752;2023-09-08T09:28:46;3.25;;;1.40;;
42602;SDS011;28233;55.748;48.752;2023-09-08T09:30:51;3.42;;;1.42;;
42602;SDS011;28233;55.748;48.752;2023-09-08T09:35:07;3.58;;;1.02;;
42602;SDS011;28233;55.748;48.752;2023-09-08T09:37:10;1.45;;;0.98;;
42602;SDS011;28233;55.748;48.752;2023-09-08T09:39:13;2.50;;;1.48;;
42602;SDS011;28233;55.748;48.752;2023-09-08T09:41:15;6.20;;;1.60;;
42602;SDS011;28233;55.748;48.752;2023-09-08T09:43:20;1.40;;;1.15;;
42602;SDS011;28233;55.748;48.752;2023-09-08T09:45:25;1.40;;;1.15;;
42602;SDS011;28233;55.748;48.752;2023-09-08T09:47:28;3.03;;;1.08;;
42602;SDS011;28233;55.748;48.752;2023-09-08T09:49:31;2.65;;;0.68;;
42602;SDS011;28233;55.748;48.752;2023-09-08T09:51:34;0.73;;;0.57;;
42602;SDS011;28233;55.748;48.752;2023-09-08T09:53:46;3.10;;;1.05;;
42602;SDS011;28233;55.748;48.752;2023-09-08T09:55:50;0.70;;;0.30;;
42602;SDS011;28233;55.748;48.752;2023-09-08T09:57:58;2.03;;;0.50;;
42602;SDS011;28233;55.748;48.752;2023-09-08T10:00:03;3.67;;;0.73;;
42602;SDS011;28233;55.748;48.752;2023-09-08T10:02:14;1.08;;;0.57;;
42602;SDS011;28233;55.748;48.752;2023-09-08T10:04:19;1.90;;;0.82;;
42602;SDS011;28233;55.748;48.752;2023-09-08T10:06:25;1.58;;;0.40;;
42602;SDS011;28233;55.748;48.752;2023-09-08T10:08:32;2.33;;;0.50;;
42602;SDS011;28233;55.748;48.752;2023-09-08T10:10:41;1.77;;;0.80;;
42602;SDS011;28233;55.748;48.752;2023-09-08T10:12:53;2.83;;;0.50;;
42602;SDS011;28233;55.748;48.752;2023-09-08T10:15:02;1.33;;;0.52;;
42602;SDS011;28233;55.748;48.752;2023-09-08T10:17:15;1.25;;;0.88;;
42602;SDS011;28233;55.748;48.752;2023-09-08T10:19:24;2.28;;;0.60;;
42602;SDS011;28233;55.748;48.752;2023-09-08T10:21:30;2.22;;;0.43;;
42602;SDS011;28233;55.748;48.752;2023-09-08T10:23:41;1.50;;;0.60;;
42602;SDS011;28233;55.748;48.752;2023-09-08T10:25:50;1.70;;;0.30;;
42602;SDS011;28233;55.748;48.752;2023-09-08T10:28:03;1.00;;;0.50;;
42602;SDS011;28233;55.748;48.752;2023-09-08T10:30:10;2.47;;;0.73;;
42602;SDS011;28233;55.748;48.752;2023-09-08T10:32:35;1.95;;;0.80;;
42602;SDS011;28233;55.748;48.752;2023-09-08T10:34:39;2.55;;;0.88;;
42602;SDS011;28233;55.748;48.752;2023-09-08T10:36:50;2.13;;;0.85;;
42602;SDS011;28233;55.748;48.752;2023-09-08T10:41:50;4.07;;;0.93;;
42602;SDS011;28233;55.748;48.752;2023-09-08T10:43:55;6.65;;;1.17;;
42602;SDS011;28233;55.748;48.752;2023-09-08T10:46:07;6.07;;;1.65;;
42602;SDS011;28233;55.748;48.752;2023-09-08T10:48:14;3.08;;;1.20;;
42602;SDS011;28233;55.748;48.752;2023-09-08T10:50:22;4.88;;;2.05;;
42602;SDS011;28233;55.748;48.752;2023-09-08T10:52:38;4.53;;;1.70;;
42602;SDS011;28233;55.748;48.752;2023-09-08T10:54:48;4.40;;;1.60;;
42602;SDS011;28233;55.748;48.752;2023-09-08T10:56:55;3.00;;;1.52;;
42602;SDS011;28233;55.748;48.752;2023-09-08T10:59:01;2.60;;;1.38;;
42602;SDS011;28233;55.748;48.752;2023-09-08T11:01:07;2.10;;;1.40;;
42602;SDS011;28233;55.748;48.752;2023-09-08T11:03:28;5.55;;;1.33;;
42602;SDS011;28233;55.748;48.752;2023-09-08T11:05:55;3.13;;;1.08;;
42602;SDS011;28233;55.748;48.752;2023-09-08T11:08:08;3.08;;;1.27;;
42602;SDS011;28233;55.748;48.752;2023-09-08T11:10:19;2.05;;;1.17;;
42602;SDS011;28233;55.748;48.752;2023-09-08T11:12:30;2.17;;;1.30;;
42602;SDS011;28233;55.748;48.752;2023-09-08T11:14:37;4.32;;;1.73;;
42602;SDS011;28233;55.748;48.752;2023-09-08T11:16:43;3.88;;;1.73;;
42602;SDS011;28233;55.748;48.752;2023-09-08T11:18:53;4.28;;;2.10;;
42602;SDS011;28233;55.748;48.752;2023-09-08T11:20:58;2.53;;;1.60;;
42602;SDS011;28233;55.748;48.752;2023-09-08T11:23:03;5.05;;;2.40;;
42602;SDS011;28233;55.748;48.752;2023-09-08T11:25:07;3.25;;;1.85;;
42602;SDS011;28233;55.748;48.752;2023-09-08T11:27:13;5.20;;;2.53;;
42602;SDS011;28233;55.748;48.752;2023-09-08T11:29:16;5.45;;;2.35;;
42602;SDS011;28233;55.748;48.752;2023-09-08T11:31:20;5.93;;;1.92;;
42602;SDS011;28233;55.748;48.752;2023-09-08T11:33:23;6.32;;;2.85;;
42602;SDS011;28233;55.748;48.752;2023-09-08T11:35:31;4.60;;;1.75;;
42602;SDS011;28233;55.748;48.752;2023-09-08T11:37:38;7.07;;;2.67;;
42602;SDS011;28233;55.748;48.752;2023-09-08T11:39:46;4.50;;;1.98;;
42602;SDS011;28233;55.748;48.752;2023-09-08T11:41:49;4.18;;;1.60;;
42602;SDS011;28233;55.748;48.752;2023-09-08T11:43:52;3.80;;;2.13;;
42602;SDS011;28233;55.748;48.752;2023-09-08T11:45:55;4.28;;;2.08;;
42602;SDS011;28233;55.748;48.752;2023-09-08T11:47:59;2.63;;;1.35;;
42602;SDS011;28233;55.748;48.752;2023-09-08T11:50:02;3.13;;;1.40;;
42602;SDS011;28233;55.748;48.752;2023-09-08T11:52:05;1.95;;;1.40;;
42602;SDS011;28233;55.748;48.752;2023-09-08T11:54:09;1.92;;;1.00;;
42602;SDS011;28233;55.748;48.752;2023-09-08T11:56:13;4.85;;;1.48;;
42602;SDS011;28233;55.748;48.752;2023-09-08T11:58:16;2.38;;;1.25;;
42602;SDS011;28233;55.748;48.752;2023-09-08T12:00:20;2.50;;;0.82;;
42602;SDS011;28233;55.748;48.752;2023-09-08T12:02:25;2.58;;;1.10;;
42602;SDS011;28233;55.748;48.752;2023-09-08T12:04:28;2.55;;;1.00;;
42602;SDS011;28233;55.748;48.752;2023-09-08T12:06:31;3.85;;;1.30;;
42602;SDS011;28233;55.748;48.752;2023-09-08T12:08:33;1.63;;;0.88;;
42602;SDS011;28233;55.748;48.752;2023-09-08T12:10:40;5.15;;;0.93;;
42602;SDS011;28233;55.748;48.752;2023-09-08T12:12:44;4.53;;;0.73;;
42602;SDS011;28233;55.748;48.752;2023-09-08T12:14:49;1.52;;;0.70;;
42602;SDS011;28233;55.748;48.752;2023-09-08T12:16:54;3.20;;;0.95;;
42602;SDS011;28233;55.748;48.752;2023-09-08T12:19:28;1.80;;;0.75;;
42602;SDS011;28233;55.748;48.752;2023-09-08T12:21:39;3.55;;;0.93;;
42602;SDS011;28233;55.748;48.752;2023-09-08T12:23:57;3.63;;;0.77;;
42602;SDS011;28233;55.748;48.752;2023-09-08T12:26:00;4.35;;;0.75;;
42602;SDS011;28233;55.748;48.752;2023-09-08T12:28:03;1.58;;;0.47;;
42602;SDS011;28233;55.748;48.752;2023-09-08T12:30:07;2.47;;;0.60;;
42602;SDS011;28233;55.748;48.752;2023-09-08T12:32:11;1.38;;;0.80;;